Time;durP1;ratioP1;P1;durP2;ratioP2;P2;SDS_P1;SDS_P2;PMS_P1;PMS_P2;Temp;Humidity;BMP_temperature;BMP_pressure;BME280_temperature;BME280_humidity;BME280_pressure;Samples;Min_cycle;Max_cycle;Signal;HPM_P1;HPM_P2
2024/02/09 02:45:53;;;;;;;3.25;1.17;;;;;;;3.96;99.38;98608.09;6219227;23;20012;-89
2024/02/09 03:04:43;;;;;;;0.68;0.68;;;;;;;4.00;99.23;98568.19;6218585;23;20095;-90
2024/02/09 03:07:09;;;;;;;0.88;0.88;;;;;;;4.15;98.62;98564.56;6245759;23;20090;-89
2024/02/09 03:09:34;;;;;;;0.98;0.77;;;;;;;4.14;98.57;98552.38;6245182;23;20019;-89
2024/02/09 03:11:59;;;;;;;0.40;0.40;;;;;;;4.11;98.42;98539.78;6217752;23;20058;-89
2024/02/09 03:14:27;;;;;;;0.52;0.52;;;;;;;4.20;98.18;98550.94;6193468;23;20016;-89
2024/02/09 03:16:54;;;;;;;1.73;1.15;;;;;;;4.05;97.75;98533.25;6218891;23;20011;-90
2024/02/09 03:19:20;;;;;;;0.57;0.55;;;;;;;4.08;98.62;98527.22;6244601;23;20071;-90
2024/02/09 03:21:46;;;;;;;0.85;0.77;;;;;;;4.17;98.32;98538.34;6218391;23;20028;-89
2024/02/09 03:24:11;;;;;;;1.23;0.77;;;;;;;4.00;98.67;98526.38;6244966;23;20004;-89
2024/02/09 03:26:37;;;;;;;1.30;0.40;;;;;;;4.11;98.59;98531.78;6193279;23;19996;-89
2024/02/09 03:29:02;;;;;;;0.98;0.80;;;;;;;3.98;98.84;98535.84;6244810;23;20012;-89
2024/02/09 03:31:31;;;;;;;0.68;0.63;;;;;;;4.09;98.45;98528.72;6216960;23;20087;-89
2024/02/09 03:33:57;;;;;;;0.68;0.68;;;;;;;4.01;98.91;98516.47;6244384;23;20019;-89
2024/02/09 03:36:23;;;;;;;0.68;0.68;;;;;;;4.13;98.60;98503.69;6217218;23;20000;-90
2024/02/09 03:38:49;;;;;;;0.60;0.60;;;;;;;4.08;98.83;98511.22;6217831;23;20354;-89
2024/02/09 03:41:15;;;;;;;1.02;0.93;;;;;;;4.11;98.79;98505.16;6217806;23;20081;-90
2024/02/09 03:43:40;;;;;;;0.85;0.55;;;;;;;4.14;97.71;98505.19;6217964;23;20077;-89
2024/02/09 03:46:06;;;;;;;0.65;0.65;;;;;;;4.06;98.16;98492.19;6193178;23;20027;-89
2024/02/09 03:48:34;;;;;;;4.22;1.15;;;;;;;3.93;98.59;98489.00;6218520;23;20057;-89
2024/02/09 03:51:01;;;;;;;2.65;0.82;;;;;;;4.05;98.82;98493.31;6192937;23;20008;-89
2024/02/09 03:53:30;;;;;;;1.40;1.00;;;;;;;4.01;98.29;98485.28;6217945;23;20342;-89
2024/02/09 03:56:16;;;;;;;1.77;1.30;;;;;;;4.02;98.24;98484.19;6245007;23;20015;-89
2024/02/09 03:58:45;;;;;;;1.00;0.93;;;;;;;3.91;98.90;98479.88;6218480;23;20083;-89
2024/02/09 04:01:11;;;;;;;1.35;1.25;;;;;;;4.08;98.84;98476.63;6217458;23;20072;-89
2024/02/09 04:04:03;;;;;;;0.30;0.30;;;;;;;3.92;98.65;98468.06;6216775;23;20465;-88
2024/02/09 04:06:32;;;;;;;1.30;0.93;;;;;;;4.04;99.12;98470.50;6184728;23;20016;-89
2024/02/09 04:09:08;;;;;;;0.45;0.43;;;;;;;4.13;97.70;98468.28;6217244;23;20014;-89
2024/02/09 04:11:34;;;;;;;4.93;1.10;;;;;;;4.00;98.11;98467.03;6218024;23;20011;-89
2024/02/09 04:13:59;;;;;;;1.08;1.02;;;;;;;3.97;98.79;98462.44;6218438;23;20453;-89
2024/02/09 04:16:31;;;;;;;0.50;0.50;;;;;;;4.04;98.49;98455.28;6192872;23;20087;-89
2024/02/09 04:18:56;;;;;;;0.93;0.88;;;;;;;4.05;98.31;98456.81;6214921;23;20024;-89
2024/02/09 04:21:21;;;;;;;0.98;0.82;;;;;;;3.90;98.69;98455.13;6191592;23;20008;-89
2024/02/09 04:24:10;;;;;;;1.00;0.80;;;;;;;3.86;98.78;98441.03;6217589;23;20054;-87
2024/02/09 04:26:44;;;;;;;3.92;0.77;;;;;;;3.70;100.00;98434.41;6179922;23;20012;-87
2024/02/09 04:29:36;;;;;;;1.20;0.70;;;;;;;3.90;99.37;98422.41;6244230;23;20066;-88
2024/02/09 04:32:25;;;;;;;0.77;0.77;;;;;;;3.91;99.16;98422.03;6248700;23;20015;-88
2024/02/09 04:35:28;;;;;;;1.65;1.05;;;;;;;3.93;98.40;98432.34;6216550;23;20100;-88
2024/02/09 04:37:59;;;;;;;2.42;0.93;;;;;;;3.82;99.30;98415.50;6243800;23;20015;-87
2024/02/09 04:40:35;;;;;;;1.23;1.08;;;;;;;3.76;99.07;98422.28;6217933;23;20007;-86
2024/02/09 04:43:04;;;;;;;1.60;0.88;;;;;;;3.95;98.83;98420.19;6192552;23;20090;-86
2024/02/09 04:45:36;;;;;;;1.45;0.77;;;;;;;3.87;99.06;98407.19;6244780;23;20006;-86
2024/02/09 04:48:16;;;;;;;0.50;0.50;;;;;;;3.78;99.27;98407.47;6217511;23;20083;-86
2024/02/09 04:50:46;;;;;;;0.65;0.63;;;;;;;3.83;100.00;98404.50;6192099;23;20442;-86
2024/02/09 04:53:15;;;;;;;1.10;0.88;;;;;;;3.71;99.01;98406.63;6217430;23;20012;-86
2024/02/09 04:55:52;;;;;;;0.60;0.60;;;;;;;3.57;100.00;98389.41;6216474;23;20083;-87
2024/02/09 04:58:18;;;;;;;0.98;0.90;;;;;;;3.71;100.00;98386.13;6244623;23;20350;-86
2024/02/09 05:00:49;;;;;;;1.85;1.13;;;;;;;3.93;98.76;98382.53;6193149;23;20000;-86
2024/02/09 05:03:17;;;;;;;1.80;1.20;;;;;;;3.91;99.29;98378.72;6216240;23;20035;-86
2024/02/09 05:05:45;;;;;;;1.05;0.45;;;;;;;3.88;98.54;98368.78;6218410;23;19996;-87
2024/02/09 05:08:14;;;;;;;1.75;0.95;;;;;;;3.67;99.67;98364.81;6192870;23;20015;-87
2024/02/09 05:10:39;;;;;;;0.50;0.50;;;;;;;3.92;98.83;98377.56;6243960;23;20004;-86
2024/02/09 05:24:27;;;;;;;0.70;0.55;;;;;;;3.80;98.88;98340.56;6184633;23;20039;-87
2024/02/09 05:26:53;;;;;;;1.08;0.63;;;;;;;3.89;98.78;98343.72;6217566;23;20386;-87
2024/02/09 05:29:24;;;;;;;1.05;0.88;;;;;;;3.86;99.51;98344.44;6216422;23;20004;-86
2024/02/09 05:31:56;;;;;;;0.90;0.90;;;;;;;3.94;99.01;98346.03;6243856;23;20039;-86
2024/02/09 05:34:21;;;;;;;0.77;0.77;;;;;;;3.88;98.51;98331.53;6221889;23;20012;-86
2024/02/09 05:36:51;;;;;;;0.68;0.68;;;;;;;3.86;99.04;98333.78;6251509;23;20008;-86
2024/02/09 05:39:19;;;;;;;0.57;0.57;;;;;;;3.85;99.04;98326.94;6224150;23;20065;-86
2024/02/09 05:41:53;;;;;;;0.22;0.22;;;;;;;3.86;99.36;98326.56;6220042;23;20008;-86
2024/02/09 05:44:19;;;;;;;1.23;1.13;;;;;;;3.87;99.10;98330.00;6244545;23;20414;-86
2024/02/09 05:46:45;;;;;;;0.65;0.60;;;;;;;3.88;99.37;98326.19;6218240;23;20004;-86
2024/02/09 05:49:11;;;;;;;3.17;0.75;;;;;;;3.88;98.19;98334.97;6218412;23;20090;-86
2024/02/09 05:51:37;;;;;;;0.85;0.70;;;;;;;3.88;99.10;98329.63;6245689;23;20039;-86
2024/02/09 05:54:06;;;;;;;0.93;0.68;;;;;;;4.03;98.37;98325.19;6193802;23;20097;-86
2024/02/09 05:56:31;;;;;;;0.98;0.88;;;;;;;3.92;98.69;98325.09;6192457;23;20000;-86
2024/02/09 05:58:57;;;;;;;0.35;0.35;;;;;;;3.98;98.22;98334.28;6216878;23;20026;-87
2024/02/09 06:01:38;;;;;;;1.27;0.47;;;;;;;3.82;98.84;98333.00;6253273;23;20004;-87
2024/02/09 06:04:04;;;;;;;1.25;0.65;;;;;;;3.84;99.11;98333.38;6227891;23;20075;-86
2024/02/09 06:06:32;;;;;;;1.15;0.70;;;;;;;4.01;98.96;98330.88;6219161;23;20020;-86
2024/02/09 06:09:05;;;;;;;0.45;0.45;;;;;;;4.14;97.37;98326.78;6260395;23;20004;-85
2024/02/09 06:11:30;;;;;;;0.47;0.47;;;;;;;3.90;98.49;98322.03;6246001;23;20092;-85
2024/02/09 06:13:56;;;;;;;0.95;0.55;;;;;;;3.91;98.46;98331.53;6245667;23;20039;-85
2024/02/09 06:16:22;;;;;;;0.80;0.80;;;;;;;4.05;98.15;98323.69;6218918;23;20354;-84
2024/02/09 06:18:52;;;;;;;1.23;0.60;;;;;;;3.98;98.01;98314.88;6228473;23;20015;-85
2024/02/09 06:21:18;;;;;;;1.50;0.60;;;;;;;4.09;97.75;98321.81;6219082;23;20366;-84
2024/02/09 06:23:47;;;;;;;1.02;0.90;;;;;;;4.03;97.92;98314.53;6194023;23;20393;-85
2024/02/09 06:26:16;;;;;;;1.08;0.88;;;;;;;3.77;98.76;98314.72;6219443;23;20004;-85
2024/02/09 06:28:47;;;;;;;0.75;0.60;;;;;;;3.92;99.17;98308.38;6255389;23;20401;-85
2024/02/09 06:31:16;;;;;;;0.40;0.40;;;;;;;3.97;98.84;98310.69;6218821;23;20016;-85
2024/02/09 06:37:05;;;;;;;1.30;0.90;;;;;;;3.85;99.51;98310.97;6254558;23;20365;-84
2024/02/09 06:39:31;;;;;;;0.60;0.60;;;;;;;3.94;98.91;98300.78;6191299;23;20023;-86
2024/02/09 06:41:56;;;;;;;0.57;0.50;;;;;;;3.83;99.25;98308.69;6218268;23;20004;-86
2024/02/09 06:44:23;;;;;;;0.47;0.47;;;;;;;4.01;98.89;98308.81;6226295;23;20522;-84
2024/02/09 06:47:03;;;;;;;0.80;0.73;;;;;;;3.75;99.55;98306.31;6244804;23;20003;-85
2024/02/09 06:49:56;;;;;;;0.40;0.40;;;;;;;3.90;99.45;98308.75;6220174;23;20018;-85
2024/02/09 06:52:37;;;;;;;0.68;0.65;;;;;;;3.80;100.00;98308.63;6216796;23;20451;-85
2024/02/09 06:55:25;;;;;;;0.60;0.60;;;;;;;3.92;98.91;98305.69;6217438;23;20039;-85
2024/02/09 06:58:08;;;;;;;0.60;0.60;;;;;;;3.90;99.86;98302.66;6215964;23;20012;-85
2024/02/09 07:04:40;;;;;;;0.60;0.60;;;;;;;4.13;98.44;98305.84;6244544;23;20024;-85
2024/02/09 07:07:14;;;;;;;0.73;0.73;;;;;;;4.04;99.15;98313.41;6232710;23;20012;-86
2024/02/09 09:25:07;;;;;;;0.50;0.50;;;;;;;4.28;99.13;98179.63;6208618;22;20018;-88
2024/02/09 09:28:17;;;;;;;0.35;0.35;;;;;;;4.46;98.86;98185.81;6227470;23;20016;-88
2024/02/09 09:31:08;;;;;;;0.65;0.65;;;;;;;4.42;99.32;98195.69;6221281;23;20454;-88
2024/02/09 09:33:39;;;;;;;0.57;0.57;;;;;;;4.50;99.13;98191.91;6191144;23;20019;-89
2024/02/09 09:36:10;;;;;;;1.33;0.82;;;;;;;4.51;98.97;98185.44;6242856;23;20016;-88
2024/02/09 13:45:25;;;;;;;0.40;0.38;;;;;;;5.51;100.00;98017.13;6206268;22;20775;-89
2024/02/09 13:47:55;;;;;;;0.40;0.40;;;;;;;5.54;100.00;98016.34;6211146;23;20012;-90
